MDJB

La Isabela International Airport

La Isabela, Dominican Republic
TAF MDJB 161600Z 1618/1718 18010KT 9999 FEW018CB BKN020 TEMPO 1619/1622 7000 -TSRA FEW014CB BKN016 SCT070 FM 170000 00000KT 9999 SCT018 PROB40 1704/1710 5000 BR BECMG 1713/1715 04010KT
Issued Valid From Valid To
Jul-16 @ 16:00 UTC
(4 hours ago)
Jul-16 @ 18:00 UTC
(2 hours ago)
Jul-17 @ 18:00 UTC
(in 22 hours)
Jul-16 @ 18:00 to Jul-17 @ 00:00
TAF MDJB 161600Z 1618/1718 18010KT 9999 FEW018CB BKN020
Wind Visibility Clouds
180° at 10 knots 10,000+ meters
  • Few at 1,800' AGL
  • Broken at 2,000' AGL
Temporary Jul-16 @ 19:00 to Jul-16 @ 22:00
TEMPO 1619/1622 7000 -TSRA FEW014CB BKN016 SCT070 FM 170000 00000KT 9999 SCT018
Visibility Clouds Conditions
7,001 meters
  • Few at 1,400' AGL
  • Broken at 1,600' AGL
  • Scattered at 7,000' AGL
  • Light Thunderstorm
  • Light Rain
From Jul-17 @ 00:00 to Jul-17 @ 13:00
Visibility Clouds
10,000+ meters
  • Scattered at 1,800' AGL
Probable  (Probability 40%) Jul-17 @ 04:00 to Jul-17 @ 10:00
PROB40 1704/1710 5000 BR
Visibility Conditions
5,005 meters
  • Mist
Becoming Jul-17 @ 13:00 to Jul-17 @ 18:00
BECMG 1713/1715 04010KT
Wind Visibility Clouds
40° at 10 knots 10,000+ meters
  • Scattered at 1,800' AGL
TAF MDJB 161600Z 1618/1718 18010KT 9999 FEW018CB BKN020 TEMPO 1619/1622 7000 -TSRA FEW014CB BKN016 SCT070 FM 170000 00000KT 9999 SCT018 PROB40 1704/1710 5000 BR BECMG 1713/1715 04010KT
Issued Jul-16 @ 16:00 UTC
(4 hours ago)
Valid From Jul-16 @ 18:00 UTC
(2 hours ago)
Valid To Jul-17 @ 18:00 UTC
(in 22 hours)
Jul-16 @ 18:00 - Jul-17 @ 00:00
Wind Visibility
180° at 10 knots 10,000+ meters
Clouds
  • Few at 1,800' AGL
  • Broken at 2,000' AGL
Temporary Jul-16 @ 19:00 - Jul-16 @ 22:00
Clouds
  • Few at 1,400' AGL
  • Broken at 1,600' AGL
  • Scattered at 7,000' AGL
Conditions
  • Light Thunderstorm
  • Light Rain
From Jul-17 @ 00:00 - Jul-17 @ 13:00
Clouds
  • Scattered at 1,800' AGL
Probability 40% Probable Jul-17 @ 04:00 - Jul-17 @ 10:00
Conditions
  • Mist
Becoming Jul-17 @ 13:00 - Jul-17 @ 18:00
Wind Visibility
40° at 10 knots 10,000+ meters
Clouds
  • Scattered at 1,800' AGL